Hlavní strana
METAR-TAF:

METAR-TAF

Letiště :

Jacksonville Municipal Airport

Jacksonville, Illinois, Spojené státy americké

zeměpisná šířka: 39-46-27N, zeměpisná délka: 090-14-19W, výška: 190 m

Aktuální stav počasí

Zpráva byla vytvořena před 24 minutami, v 13:35 UTC
Bezvětří
Teplota -1°C
Vlhkost vzduchu 93%
Tlak 1030 hPa
Viditelnost: 11.3 km
Jasno

METAR: KIJX 181335Z AUTO 00000KT 7SM CLR M01/M02 A3043 RMK AO2 T10081020

Čas: 08:59 (13:59 UTC)


TAF: chybějící

Stav a předpovědi počasí z více než 4 000 letišť (zprávy METAR a TAF).

Červené a žluté tečky na mapě představují dostupné meteorologické stanice.

Když kurzor umístíte na tečku, zobrazí se název stanice.

Pak kliknutím zobrazíte stav a předpověď počasí.

Chcete-li změnit mapu, kliknutím na zelené tlačítko se znaménkem +mapu přiblížíte, kliknutím na zelené tlačítko se znaménkem – mapu oddálíte a kliknutím na zelené šipky přejdete na sousední mapy.


METAR-TAF: